This is the latest recevied weather packets stored in our database for station/object CT2IRJ-11. If no packets are shown the sender has not sent any weather packets the latest 10 day(s).
| Time | Temp. | Humidity | Pressure | Rain* | Wind** | Luminosity | Snow |
|---|---|---|---|---|---|---|---|
| 1777909410 | 18.89° C | 53% | 1015.9 hPa | 0 mm | - | 552 W/m² | - |
| 1777909111 | 19.44° C | 53% | 1015.9 hPa | 0 mm | - | 110 W/m² | - |
| 1777908810 | 19.44° C | 53% | 1015.9 hPa | 0 mm | - | 613 W/m² | - |
| 1777908513 | 20° C | 51% | 1015.9 hPa | 0 mm | - | 113 W/m² | - |
| 1777908210 | 20° C | 52% | 1015.6 hPa | 0 mm | - | 616 W/m² | - |
| 1777907910 | 20° C | 50% | 1015.9 hPa | 0 mm | - | 106 W/m² | - |
| 1777907613 | 19.44° C | 52% | 1016.3 hPa | 0 mm | - | 202 W/m² | - |
| 1777907310 | 20° C | 51% | 1015.9 hPa | 0 mm | - | 165 W/m² | - |
| 1777907010 | 20° C | 50% | 1016.3 hPa | 0 mm | - | 101 W/m² | - |
| 1777906710 | 20° C | 51% | 1016.3 hPa | 0 mm | - | 367 W/m² | - |
| 1777906410 | 20° C | 53% | 1016.3 hPa | 0 mm | - | 174 W/m² | - |
| 1777906110 | 21.11° C | 49% | 1015.9 hPa | 0 mm | - | 197 W/m² | - |
| 1777905810 | 22.78° C | 47% | 1016.3 hPa | 0 mm | - | 193 W/m² | - |
| 1777905510 | 22.78° C | 47% | 1015.9 hPa | 0 mm | - | 673 W/m² | - |
| 1777905210 | 22.22° C | 47% | 1016.3 hPa | 0 mm | - | 685 W/m² | - |
| 1777904909 | 22.22° C | 45% | 1016.3 hPa | 0 mm | - | 691 W/m² | - |
| 1777904610 | 22.22° C | 48% | 1016.3 hPa | 0 mm | - | 738 W/m² | - |
| 1777904310 | 21.67° C | 49% | 1015.9 hPa | 0 mm | - | 781 W/m² | - |
| 1777904009 | 21.11° C | 52% | 1016.3 hPa | 0 mm | - | 223 W/m² | - |
| 1777903709 | 21.67° C | 53% | 1016.3 hPa | 0 mm | - | 643 W/m² | - |
| 1777903409 | 21.11° C | 51% | 1016.3 hPa | 0 mm | - | 789 W/m² | - |
| 1777903110 | 22.22° C | 50% | 1016.3 hPa | 0 mm | - | 751 W/m² | - |
| 1777902809 | 21.67° C | 51% | 1016.3 hPa | 0 mm | - | 763 W/m² | - |
| 1777902509 | 21.67° C | 50% | 1016.3 hPa | 0 mm | - | 829 W/m² | - |
| 1777902209 | 20.56° C | 54% | 1016.3 hPa | 0 mm | - | 639 W/m² | - |
* Rain latest hour (hover to see other rain measurements)
** Current wind speed in m/s (hover to see current wind gust speed)